createdAt,value
2022-12-16T00:01:39.246Z,99.90
2022-12-16T00:04:05.913Z,99.90
2022-12-16T00:06:34.314Z,99.90
2022-12-16T00:09:01.716Z,99.90
2022-12-16T00:11:31.904Z,99.90
2022-12-16T00:13:58.622Z,99.90
2022-12-16T00:16:25.280Z,99.90
2022-12-16T00:18:52.144Z,99.90
2022-12-16T00:21:19.704Z,99.90
2022-12-16T00:23:46.529Z,99.90
2022-12-16T00:26:13.564Z,99.90
2022-12-16T00:28:40.674Z,99.90
2022-12-16T00:31:07.720Z,99.90
2022-12-16T00:33:34.824Z,99.90
2022-12-16T00:36:01.863Z,99.90
2022-12-16T00:38:28.529Z,99.90
2022-12-16T00:40:55.226Z,99.90
2022-12-16T00:43:22.311Z,99.90
2022-12-16T00:45:49.370Z,99.90
2022-12-16T00:48:22.963Z,99.90
2022-12-16T00:50:52.205Z,99.90
2022-12-16T00:53:20.729Z,99.90
2022-12-16T00:55:47.385Z,99.90
2022-12-16T00:58:14.425Z,99.90
2022-12-16T01:00:41.533Z,99.90
2022-12-16T01:03:08.800Z,99.90
2022-12-16T01:05:38.833Z,99.90
2022-12-16T01:08:05.603Z,99.90
2022-12-16T01:10:32.298Z,99.90
2022-12-16T01:12:58.883Z,99.90
2022-12-16T01:15:25.534Z,99.90
2022-12-16T01:17:52.104Z,99.90
2022-12-16T01:20:18.865Z,99.90
2022-12-16T01:22:46.200Z,99.90
2022-12-16T01:25:13.017Z,99.90
2022-12-16T01:27:39.847Z,99.90
2022-12-16T01:30:07.400Z,99.90
2022-12-16T01:32:33.985Z,99.90
2022-12-16T01:35:00.557Z,99.90
2022-12-16T01:37:27.291Z,99.90
2022-12-16T01:39:53.946Z,99.90
2022-12-16T01:42:22.742Z,99.90
2022-12-16T01:44:52.111Z,99.90
2022-12-16T01:47:28.151Z,99.90
2022-12-16T01:50:04.400Z,99.90
2022-12-16T01:52:36.974Z,99.90
2022-12-16T01:55:12.113Z,99.90
2022-12-16T01:57:45.726Z,99.90
2022-12-16T02:00:13.233Z,99.90
2022-12-16T02:02:43.794Z,99.90
2022-12-16T02:05:22.022Z,99.90
2022-12-16T02:08:15.000Z,99.90
2022-12-16T02:10:44.812Z,99.90
2022-12-16T02:13:29.627Z,99.90
2022-12-16T02:16:17.205Z,99.90
2022-12-16T02:19:22.066Z,99.90
2022-12-16T02:22:16.899Z,99.90
2022-12-16T02:25:11.720Z,99.90
2022-12-16T02:28:16.723Z,99.90
2022-12-16T02:31:21.031Z,99.90
2022-12-16T02:33:57.586Z,99.90
2022-12-16T02:37:08.169Z,99.90
2022-12-16T02:39:38.303Z,99.90
2022-12-16T02:42:16.484Z,99.90
2022-12-16T02:45:02.897Z,99.90
2022-12-16T02:47:31.086Z,99.90
2022-12-16T02:49:57.834Z,99.90
2022-12-16T02:52:27.999Z,99.90
2022-12-16T02:55:05.144Z,99.90
2022-12-16T02:57:31.744Z,99.90
2022-12-16T03:00:12.963Z,99.90
2022-12-16T03:02:57.783Z,99.90
2022-12-16T03:05:36.634Z,99.90
2022-12-16T03:08:09.060Z,99.90
2022-12-16T03:10:41.285Z,99.90
2022-12-16T03:13:10.646Z,99.90
2022-12-16T03:15:39.584Z,99.90
2022-12-16T03:18:09.110Z,99.90
2022-12-16T03:20:41.517Z,99.90
2022-12-16T03:23:13.867Z,99.90
2022-12-16T03:25:45.060Z,99.90
2022-12-16T03:28:27.952Z,99.90
2022-12-16T03:31:09.436Z,99.90
2022-12-16T03:33:47.591Z,99.90
2022-12-16T03:36:22.020Z,99.90
2022-12-16T03:38:50.405Z,99.90
2022-12-16T03:41:19.006Z,99.90
2022-12-16T03:43:46.230Z,99.90
2022-12-16T03:46:14.565Z,99.90
2022-12-16T03:48:51.776Z,99.90
2022-12-16T03:51:19.904Z,99.90
2022-12-16T03:53:46.714Z,99.90
2022-12-16T03:56:13.541Z,99.90
2022-12-16T03:58:40.381Z,99.90
2022-12-16T04:01:09.310Z,99.90
2022-12-16T04:03:39.461Z,99.90
2022-12-16T04:06:06.739Z,99.90
2022-12-16T04:08:33.335Z,99.90
2022-12-16T04:11:18.347Z,99.90
2022-12-16T04:14:03.673Z,99.90
2022-12-16T04:16:49.619Z,99.90
2022-12-16T04:19:45.275Z,99.90
2022-12-16T04:22:34.310Z,99.90
2022-12-16T04:25:34.026Z,99.90
2022-12-16T04:28:00.668Z,99.90
2022-12-16T04:30:28.757Z,99.90
2022-12-16T04:33:17.798Z,99.90
2022-12-16T04:36:03.617Z,99.90
2022-12-16T04:38:50.085Z,99.90
2022-12-16T04:41:35.529Z,99.90
2022-12-16T04:44:21.624Z,99.90
2022-12-16T04:47:07.074Z,99.90
2022-12-16T04:49:52.622Z,99.90
2022-12-16T04:52:38.149Z,99.90
2022-12-16T04:55:24.599Z,99.90
2022-12-16T04:58:15.027Z,99.90
2022-12-16T05:01:01.063Z,99.90
2022-12-16T05:03:46.366Z,99.90
2022-12-16T05:06:32.965Z,99.90
2022-12-16T05:09:18.786Z,99.90
2022-12-16T05:12:04.114Z,99.90
2022-12-16T05:14:49.722Z,99.90
2022-12-16T05:17:35.127Z,99.90
2022-12-16T05:20:21.211Z,99.90
2022-12-16T05:23:06.688Z,99.90
2022-12-16T05:25:52.123Z,99.90
2022-12-16T05:28:37.583Z,99.90
2022-12-16T05:31:23.113Z,99.90
2022-12-16T05:34:08.482Z,99.90
2022-12-16T05:36:53.887Z,99.90
2022-12-16T05:39:39.296Z,99.90
2022-12-16T05:42:24.784Z,99.90
2022-12-16T05:45:10.216Z,99.90
2022-12-16T05:47:55.695Z,99.90
2022-12-16T05:50:41.218Z,99.90
2022-12-16T05:53:26.527Z,99.90
2022-12-16T05:56:11.877Z,99.90
2022-12-16T05:59:00.335Z,99.90
2022-12-16T06:01:45.963Z,99.90
2022-12-16T06:04:31.247Z,99.90
2022-12-16T06:07:16.556Z,99.90
2022-12-16T06:10:01.963Z,99.90
2022-12-16T06:12:47.324Z,99.90
2022-12-16T06:15:32.849Z,99.90
2022-12-16T06:18:18.373Z,99.90
2022-12-16T06:21:03.707Z,99.90
2022-12-16T06:23:49.488Z,99.90
2022-12-16T06:26:34.400Z,99.90
2022-12-16T06:29:19.973Z,99.90
2022-12-16T06:32:05.485Z,99.90
2022-12-16T06:34:50.840Z,99.90
2022-12-16T06:37:36.334Z,99.90
2022-12-16T06:40:21.873Z,99.90
2022-12-16T06:43:07.357Z,99.90
2022-12-16T06:45:52.817Z,99.90
2022-12-16T06:48:38.180Z,99.90
2022-12-16T06:51:23.680Z,99.90
2022-12-16T06:54:09.014Z,99.90
2022-12-16T06:56:54.420Z,99.90
2022-12-16T06:59:39.865Z,99.90
2022-12-16T07:02:29.065Z,99.90
2022-12-16T07:05:14.656Z,99.90
2022-12-16T07:08:09.151Z,99.90
2022-12-16T07:10:57.974Z,99.90
2022-12-16T07:13:46.699Z,99.90
2022-12-16T07:16:32.179Z,99.90
2022-12-16T07:19:17.474Z,99.90
2022-12-16T07:22:02.803Z,99.90
2022-12-16T07:24:48.122Z,99.90
2022-12-16T07:27:33.602Z,99.90
2022-12-16T07:30:18.990Z,99.90
2022-12-16T07:33:08.239Z,99.90
2022-12-16T07:35:53.425Z,99.90
2022-12-16T07:38:38.766Z,99.90
2022-12-16T07:41:24.200Z,99.90
2022-12-16T07:44:09.544Z,99.90
2022-12-16T07:46:55.169Z,99.90
2022-12-16T07:49:40.482Z,99.90
2022-12-16T07:52:25.817Z,99.90
2022-12-16T07:55:11.212Z,99.90
2022-12-16T07:57:56.689Z,99.90
2022-12-16T08:00:42.073Z,99.90
2022-12-16T08:03:27.396Z,99.90
2022-12-16T08:06:12.562Z,99.90
2022-12-16T08:08:58.047Z,99.90
2022-12-16T08:11:43.365Z,99.90
2022-12-16T08:14:28.822Z,99.90
2022-12-16T08:17:14.207Z,99.90
2022-12-16T08:19:59.407Z,99.90
2022-12-16T08:22:44.960Z,99.90
2022-12-16T08:25:30.349Z,99.90
2022-12-16T08:28:15.857Z,99.90
2022-12-16T08:31:01.435Z,99.90
2022-12-16T08:33:46.780Z,99.90
2022-12-16T08:36:32.108Z,99.90
2022-12-16T08:39:17.623Z,99.90
2022-12-16T08:42:03.128Z,99.90
2022-12-16T08:44:48.551Z,99.90
2022-12-16T08:47:33.970Z,99.90
2022-12-16T08:50:19.460Z,99.90
2022-12-16T08:53:05.030Z,99.90
2022-12-16T08:55:50.162Z,99.90
2022-12-16T08:58:37.512Z,99.90
2022-12-16T09:01:22.920Z,99.90
2022-12-16T09:04:08.191Z,99.90
2022-12-16T09:06:53.700Z,99.90
2022-12-16T09:09:38.862Z,99.90
2022-12-16T09:12:24.379Z,99.90
2022-12-16T09:15:09.806Z,99.90
2022-12-16T09:17:55.133Z,99.90
2022-12-16T09:20:47.369Z,99.90
2022-12-16T09:23:33.368Z,99.90
2022-12-16T09:26:18.831Z,99.90
2022-12-16T09:29:04.265Z,99.90
2022-12-16T09:31:49.732Z,99.90
2022-12-16T09:34:35.155Z,99.90
2022-12-16T09:37:20.554Z,99.90
2022-12-16T09:40:06.047Z,99.90
2022-12-16T09:43:06.746Z,99.90
2022-12-16T09:46:02.485Z,99.90
2022-12-16T09:49:20.162Z,99.90
2022-12-16T09:52:06.720Z,99.90
2022-12-16T09:54:55.089Z,99.90
2022-12-16T09:57:43.336Z,99.90
2022-12-16T10:00:39.756Z,99.90
2022-12-16T10:03:39.884Z,99.90
2022-12-16T10:07:04.680Z,99.90
2022-12-16T10:09:59.309Z,99.90
2022-12-16T10:12:47.324Z,99.90
2022-12-16T10:15:51.994Z,99.90
2022-12-16T10:19:04.842Z,99.90
2022-12-16T10:22:15.943Z,99.90
2022-12-16T10:25:25.237Z,99.90
2022-12-16T10:28:16.815Z,99.90
2022-12-16T10:31:01.968Z,99.90
2022-12-16T10:33:48.582Z,99.90
2022-12-16T10:36:41.077Z,99.90
2022-12-16T10:39:43.035Z,99.90
2022-12-16T10:42:44.147Z,99.90
2022-12-16T10:45:52.239Z,99.90
2022-12-16T10:48:51.428Z,99.90
2022-12-16T10:51:43.298Z,99.90
2022-12-16T10:54:50.963Z,99.90
2022-12-16T10:57:49.660Z,99.00
2022-12-16T11:00:38.370Z,99.90
2022-12-16T11:03:42.300Z,98.20
2022-12-16T11:06:29.479Z,95.20
2022-12-16T11:09:14.790Z,93.20
2022-12-16T11:12:00.095Z,93.00
2022-12-16T11:15:05.974Z,91.60
2022-12-16T11:17:53.507Z,90.60
2022-12-16T11:20:43.687Z,87.60
2022-12-16T11:23:39.147Z,90.80
2022-12-16T11:26:36.843Z,91.90
2022-12-16T11:29:35.978Z,91.80
2022-12-16T11:32:42.927Z,93.20
2022-12-16T11:35:37.047Z,92.60
2022-12-16T11:38:24.739Z,90.60
2022-12-16T11:41:11.095Z,90.70
2022-12-16T11:43:58.930Z,89.80
2022-12-16T11:46:46.013Z,90.20
2022-12-16T11:49:40.855Z,91.10
2022-12-16T11:52:38.108Z,90.90
2022-12-16T11:56:03.669Z,91.10
2022-12-16T11:58:44.458Z,90.30
2022-12-16T12:01:48.365Z,90.40
2022-12-16T12:04:34.956Z,91.20
2022-12-16T12:07:45.809Z,91.60
2022-12-16T12:10:56.289Z,90.60
2022-12-16T12:14:12.299Z,91.20
2022-12-16T12:17:24.391Z,90.40
2022-12-16T12:20:36.609Z,87.70
2022-12-16T12:23:26.177Z,90.50
2022-12-16T12:26:32.636Z,90.80
2022-12-16T12:29:34.112Z,90.00
2022-12-16T12:32:53.268Z,91.60
2022-12-16T12:36:18.226Z,92.00
2022-12-16T12:39:21.615Z,90.50
2022-12-16T12:42:17.758Z,92.80
2022-12-16T12:46:04.509Z,96.60
2022-12-16T12:49:06.582Z,99.50
2022-12-16T12:52:08.336Z,99.90
2022-12-16T12:55:12.067Z,99.90
2022-12-16T12:58:02.681Z,99.90
2022-12-16T13:00:55.238Z,99.90
2022-12-16T13:04:00.113Z,99.90
2022-12-16T13:06:46.231Z,99.90
2022-12-16T13:09:51.224Z,99.90
2022-12-16T13:12:50.600Z,99.90
2022-12-16T13:15:39.986Z,99.90
2022-12-16T13:18:25.359Z,99.90
2022-12-16T13:21:13.228Z,99.90
2022-12-16T13:24:17.329Z,99.90
2022-12-16T13:27:19.254Z,99.90
2022-12-16T13:30:36.016Z,99.90
2022-12-16T13:33:40.073Z,99.90
2022-12-16T13:36:25.948Z,99.90
2022-12-16T13:39:14.472Z,99.90
2022-12-16T13:41:59.729Z,99.90
2022-12-16T13:45:12.548Z,99.90
2022-12-16T13:48:00.397Z,99.90
2022-12-16T13:51:06.628Z,99.90
2022-12-16T13:54:13.504Z,99.90
2022-12-16T13:57:04.450Z,99.90
2022-12-16T13:59:51.482Z,99.90
2022-12-16T14:02:49.473Z,99.90
2022-12-16T14:05:42.638Z,99.90
2022-12-16T14:08:51.823Z,99.90
2022-12-16T14:11:54.769Z,99.90
2022-12-16T14:14:49.774Z,99.90
2022-12-16T14:17:53.837Z,99.90
2022-12-16T14:20:55.226Z,99.90
2022-12-16T14:24:00.594Z,99.90
2022-12-16T14:26:46.929Z,99.90
2022-12-16T14:29:45.457Z,99.90
2022-12-16T14:32:43.763Z,99.90
2022-12-16T14:35:36.784Z,99.90
2022-12-16T14:38:41.463Z,99.90
2022-12-16T14:41:39.355Z,99.90
2022-12-16T14:44:41.160Z,99.90
2022-12-16T14:47:38.105Z,99.90
2022-12-16T14:50:47.268Z,99.90
2022-12-16T14:53:38.550Z,99.90
2022-12-16T14:56:50.380Z,99.90
2022-12-16T14:59:38.615Z,99.90
2022-12-16T15:02:44.971Z,99.90
2022-12-16T15:05:32.178Z,99.90
2022-12-16T15:08:18.928Z,99.90
2022-12-16T15:11:04.607Z,99.90
2022-12-16T15:13:53.073Z,99.90
2022-12-16T15:16:46.152Z,99.90
2022-12-16T15:19:36.383Z,99.90
2022-12-16T15:22:21.997Z,99.90
2022-12-16T15:25:07.560Z,99.90
2022-12-16T15:27:55.420Z,99.90
2022-12-16T15:30:55.766Z,99.90
2022-12-16T15:33:44.466Z,99.90
2022-12-16T15:36:48.325Z,99.90
2022-12-16T15:39:44.620Z,99.90
2022-12-16T15:42:39.719Z,99.90
2022-12-16T15:45:35.788Z,99.90
2022-12-16T15:48:48.203Z,99.90
2022-12-16T15:51:50.986Z,99.90
2022-12-16T15:54:43.213Z,99.90
2022-12-16T15:57:52.758Z,99.90
2022-12-16T16:00:45.498Z,99.90
2022-12-16T16:03:50.669Z,99.90
2022-12-16T16:06:37.509Z,99.90
2022-12-16T16:09:38.586Z,99.90
2022-12-16T16:12:24.046Z,99.90
2022-12-16T16:15:11.602Z,99.90
2022-12-16T16:17:57.024Z,99.90
2022-12-16T16:20:47.982Z,99.90
2022-12-16T16:23:33.863Z,99.90
2022-12-16T16:26:19.389Z,99.90
2022-12-16T16:29:06.530Z,99.90
2022-12-16T16:31:52.257Z,99.90
2022-12-16T16:34:37.424Z,99.90
2022-12-16T16:37:34.481Z,99.90
2022-12-16T16:40:20.696Z,99.90
2022-12-16T16:43:06.216Z,99.90
2022-12-16T16:45:51.469Z,99.90
2022-12-16T16:48:36.937Z,99.90
2022-12-16T16:51:23.006Z,99.90
2022-12-16T16:54:08.387Z,99.90
2022-12-16T16:56:55.731Z,99.90
2022-12-16T16:59:42.800Z,99.90
2022-12-16T17:02:46.917Z,99.90
2022-12-16T17:05:32.562Z,99.90
2022-12-16T17:08:18.245Z,99.90
2022-12-16T17:11:05.994Z,99.90
2022-12-16T17:13:52.437Z,99.90
2022-12-16T17:16:37.972Z,99.90
2022-12-16T17:19:23.408Z,99.90
2022-12-16T17:22:08.964Z,99.90
2022-12-16T17:24:54.704Z,99.90
2022-12-16T17:27:44.953Z,99.90
2022-12-16T17:30:46.531Z,99.90
2022-12-16T17:33:35.377Z,99.90
2022-12-16T17:36:20.697Z,99.90
2022-12-16T17:39:06.199Z,99.90
2022-12-16T17:41:52.117Z,99.90
2022-12-16T17:44:43.015Z,99.90
2022-12-16T17:47:29.454Z,99.90
2022-12-16T17:50:14.939Z,99.90
2022-12-16T17:53:00.373Z,99.90
2022-12-16T17:55:45.988Z,99.90
2022-12-16T17:58:32.037Z,99.90
2022-12-16T18:01:25.146Z,99.90
2022-12-16T18:04:10.475Z,99.90
2022-12-16T18:06:55.889Z,99.90
2022-12-16T18:09:41.257Z,99.90
2022-12-16T18:12:26.690Z,99.90
2022-12-16T18:15:12.270Z,99.90
2022-12-16T18:17:57.642Z,99.90
2022-12-16T18:20:43.279Z,99.90
2022-12-16T18:23:28.428Z,99.90
2022-12-16T18:26:19.717Z,99.90
2022-12-16T18:29:06.239Z,99.90
2022-12-16T18:31:53.995Z,99.90
2022-12-16T18:34:46.260Z,99.90
2022-12-16T18:37:31.972Z,99.90
2022-12-16T18:40:17.568Z,99.90
2022-12-16T18:43:04.202Z,99.90
2022-12-16T18:45:49.780Z,99.90
2022-12-16T18:48:35.208Z,99.90
2022-12-16T18:51:20.713Z,99.90
2022-12-16T18:54:09.171Z,99.90
2022-12-16T18:56:54.505Z,99.90
2022-12-16T18:59:39.781Z,99.90
2022-12-16T19:02:25.450Z,99.90
2022-12-16T19:05:10.629Z,99.90
2022-12-16T19:07:55.974Z,99.90
2022-12-16T19:10:42.518Z,99.90
2022-12-16T19:13:32.165Z,99.90
2022-12-16T19:16:17.610Z,99.90
2022-12-16T19:19:03.056Z,99.90
2022-12-16T19:21:52.125Z,99.90
2022-12-16T19:24:41.641Z,99.90
2022-12-16T19:27:27.075Z,99.90
2022-12-16T19:30:12.593Z,99.90
2022-12-16T19:32:58.897Z,99.90
2022-12-16T19:35:44.488Z,99.90
2022-12-16T19:38:33.470Z,99.90
2022-12-16T19:41:18.867Z,99.90
2022-12-16T19:44:06.496Z,99.90
2022-12-16T19:46:55.852Z,99.90
2022-12-16T19:49:44.424Z,99.90
2022-12-16T19:52:30.477Z,99.90
2022-12-16T19:55:17.868Z,99.90
2022-12-16T19:58:03.145Z,99.90
2022-12-16T20:00:48.672Z,99.90
2022-12-16T20:03:37.874Z,99.90
2022-12-16T20:06:26.995Z,99.90
2022-12-16T20:09:13.301Z,99.90
2022-12-16T20:11:59.045Z,99.90
2022-12-16T20:14:44.670Z,99.90
2022-12-16T20:17:30.060Z,99.90
2022-12-16T20:20:15.321Z,99.90
2022-12-16T20:23:06.439Z,99.90
2022-12-16T20:25:51.831Z,99.90
2022-12-16T20:28:37.331Z,99.90
2022-12-16T20:31:36.645Z,99.90
2022-12-16T20:34:22.135Z,99.90
2022-12-16T20:37:07.621Z,99.90
2022-12-16T20:39:56.834Z,99.90
2022-12-16T20:42:43.999Z,99.90
2022-12-16T20:45:29.519Z,99.90
2022-12-16T20:48:14.887Z,99.90
2022-12-16T20:51:00.566Z,99.90
2022-12-16T20:53:45.821Z,99.90
2022-12-16T20:56:31.293Z,99.90
2022-12-16T20:59:16.753Z,99.90
2022-12-16T21:05:07.371Z,99.90
2022-12-16T21:07:53.524Z,99.90
2022-12-16T21:10:38.801Z,99.90
2022-12-16T21:13:28.709Z,99.90
2022-12-16T21:16:16.128Z,99.90
2022-12-16T21:19:01.685Z,99.90
2022-12-16T21:21:47.189Z,99.90
2022-12-16T21:24:32.654Z,99.90
2022-12-16T21:27:18.159Z,99.90
2022-12-16T21:30:03.665Z,99.90
2022-12-16T21:32:49.104Z,99.90
2022-12-16T21:35:34.791Z,99.90
2022-12-16T21:38:20.246Z,99.90
2022-12-16T21:41:12.447Z,99.90
2022-12-16T21:43:57.828Z,99.90
2022-12-16T21:46:43.403Z,99.90
2022-12-16T21:49:28.865Z,99.90
2022-12-16T21:52:14.331Z,99.90
2022-12-16T21:54:59.536Z,99.90
2022-12-16T21:57:44.821Z,99.90
2022-12-16T22:00:30.990Z,99.90
2022-12-16T22:03:16.322Z,99.90
2022-12-16T22:06:02.052Z,99.90
2022-12-16T22:08:47.447Z,99.90
2022-12-16T22:11:32.926Z,99.90
2022-12-16T22:14:18.420Z,99.90
2022-12-16T22:17:05.424Z,99.90
2022-12-16T22:19:50.968Z,99.90
2022-12-16T22:22:36.977Z,99.90
2022-12-16T22:25:22.545Z,99.90
2022-12-16T22:28:09.828Z,99.90
2022-12-16T22:30:56.279Z,99.90
2022-12-16T22:33:41.901Z,99.90
2022-12-16T22:36:29.053Z,99.90
2022-12-16T22:39:14.492Z,99.90
2022-12-16T22:41:59.914Z,99.90
2022-12-16T22:44:45.382Z,99.90
2022-12-16T22:47:30.943Z,99.90
2022-12-16T22:50:16.444Z,99.90
2022-12-16T22:53:01.843Z,99.90
2022-12-16T22:55:48.200Z,99.90
2022-12-16T22:58:33.686Z,99.90
2022-12-16T23:01:24.901Z,99.90
2022-12-16T23:04:10.236Z,99.90
2022-12-16T23:06:56.215Z,99.90
2022-12-16T23:09:41.719Z,99.90
2022-12-16T23:12:27.125Z,99.90
2022-12-16T23:15:14.604Z,99.90
2022-12-16T23:17:59.935Z,99.90
2022-12-16T23:20:45.445Z,99.90
2022-12-16T23:23:31.542Z,99.90
2022-12-16T23:26:18.584Z,99.90
2022-12-16T23:29:07.769Z,99.90
2022-12-16T23:31:54.062Z,99.90
2022-12-16T23:34:45.945Z,99.90
2022-12-16T23:37:31.862Z,99.90
2022-12-16T23:40:17.232Z,99.90
2022-12-16T23:43:02.719Z,99.90
2022-12-16T23:45:48.049Z,99.90
2022-12-16T23:48:33.200Z,99.90
2022-12-16T23:51:18.568Z,99.90
2022-12-16T23:54:04.140Z,99.90
2022-12-16T23:56:49.857Z,99.90
2022-12-16T23:59:35.013Z,99.90
